sensor_id;sensor_type;location;lat;lon;timestamp;P1;durP1;ratioP1;P2;durP2;ratioP2
10050;SDS011;5065;46.942;7.432;2024-03-22T00:02:23;2.63;;;1.90;;
10050;SDS011;5065;46.942;7.432;2024-03-22T00:04:52;2.07;;;1.83;;
10050;SDS011;5065;46.942;7.432;2024-03-22T00:07:18;4.30;;;2.30;;
10050;SDS011;5065;46.942;7.432;2024-03-22T00:09:45;2.90;;;2.23;;
10050;SDS011;5065;46.942;7.432;2024-03-22T00:12:11;4.13;;;3.20;;
10050;SDS011;5065;46.942;7.432;2024-03-22T00:14:38;3.43;;;2.10;;
10050;SDS011;5065;46.942;7.432;2024-03-22T00:17:05;4.40;;;2.53;;
10050;SDS011;5065;46.942;7.432;2024-03-22T00:19:32;3.00;;;2.43;;
10050;SDS011;5065;46.942;7.432;2024-03-22T00:21:59;4.50;;;2.00;;
10050;SDS011;5065;46.942;7.432;2024-03-22T00:24:26;11.90;;;3.00;;
10050;SDS011;5065;46.942;7.432;2024-03-22T00:26:52;4.73;;;2.10;;
10050;SDS011;5065;46.942;7.432;2024-03-22T00:29:19;2.97;;;2.37;;
10050;SDS011;5065;46.942;7.432;2024-03-22T00:31:45;3.93;;;2.60;;
10050;SDS011;5065;46.942;7.432;2024-03-22T00:34:13;2.70;;;2.07;;
10050;SDS011;5065;46.942;7.432;2024-03-22T00:36:39;1.90;;;1.77;;
10050;SDS011;5065;46.942;7.432;2024-03-22T00:39:07;4.30;;;1.80;;
10050;SDS011;5065;46.942;7.432;2024-03-22T00:41:33;2.80;;;2.00;;
10050;SDS011;5065;46.942;7.432;2024-03-22T00:44:00;2.20;;;1.87;;
10050;SDS011;5065;46.942;7.432;2024-03-22T00:46:26;2.57;;;1.80;;
10050;SDS011;5065;46.942;7.432;2024-03-22T00:48:53;2.93;;;2.30;;
10050;SDS011;5065;46.942;7.432;2024-03-22T00:51:20;2.33;;;1.87;;
10050;SDS011;5065;46.942;7.432;2024-03-22T00:53:47;2.33;;;2.00;;
10050;SDS011;5065;46.942;7.432;2024-03-22T00:56:14;3.50;;;2.17;;
10050;SDS011;5065;46.942;7.432;2024-03-22T00:58:42;1.97;;;1.83;;
10050;SDS011;5065;46.942;7.432;2024-03-22T01:01:08;5.63;;;2.03;;
10050;SDS011;5065;46.942;7.432;2024-03-22T01:03:35;3.90;;;2.17;;
10050;SDS011;5065;46.942;7.432;2024-03-22T01:06:01;2.37;;;2.00;;
10050;SDS011;5065;46.942;7.432;2024-03-22T01:08:28;3.00;;;1.90;;
10050;SDS011;5065;46.942;7.432;2024-03-22T01:10:54;3.80;;;2.00;;
10050;SDS011;5065;46.942;7.432;2024-03-22T01:13:23;2.10;;;1.70;;
10050;SDS011;5065;46.942;7.432;2024-03-22T01:15:49;2.23;;;1.80;;
10050;SDS011;5065;46.942;7.432;2024-03-22T01:18:19;3.83;;;2.30;;
10050;SDS011;5065;46.942;7.432;2024-03-22T01:20:45;3.10;;;2.07;;
10050;SDS011;5065;46.942;7.432;2024-03-22T01:23:12;2.23;;;2.03;;
10050;SDS011;5065;46.942;7.432;2024-03-22T01:25:39;3.73;;;1.83;;
10050;SDS011;5065;46.942;7.432;2024-03-22T01:28:06;3.40;;;2.47;;
10050;SDS011;5065;46.942;7.432;2024-03-22T01:30:35;4.37;;;2.23;;
10050;SDS011;5065;46.942;7.432;2024-03-22T01:33:02;4.17;;;2.27;;
10050;SDS011;5065;46.942;7.432;2024-03-22T01:35:28;2.87;;;2.20;;
10050;SDS011;5065;46.942;7.432;2024-03-22T01:37:55;2.50;;;1.90;;
10050;SDS011;5065;46.942;7.432;2024-03-22T01:40:21;2.07;;;1.80;;
10050;SDS011;5065;46.942;7.432;2024-03-22T01:42:52;2.93;;;1.97;;
10050;SDS011;5065;46.942;7.432;2024-03-22T01:45:18;3.50;;;1.87;;
10050;SDS011;5065;46.942;7.432;2024-03-22T01:47:47;6.17;;;2.57;;
10050;SDS011;5065;46.942;7.432;2024-03-22T01:50:14;1.97;;;1.77;;
10050;SDS011;5065;46.942;7.432;2024-03-22T01:52:41;3.50;;;1.97;;
10050;SDS011;5065;46.942;7.432;2024-03-22T01:55:07;6.43;;;2.10;;
10050;SDS011;5065;46.942;7.432;2024-03-22T01:57:34;1.53;;;1.43;;
10050;SDS011;5065;46.942;7.432;2024-03-22T02:00:03;2.03;;;1.67;;
10050;SDS011;5065;46.942;7.432;2024-03-22T02:02:31;3.13;;;1.87;;
10050;SDS011;5065;46.942;7.432;2024-03-22T02:04:58;1.83;;;1.57;;
10050;SDS011;5065;46.942;7.432;2024-03-22T02:07:27;2.10;;;1.90;;
10050;SDS011;5065;46.942;7.432;2024-03-22T02:09:55;2.80;;;1.77;;
10050;SDS011;5065;46.942;7.432;2024-03-22T02:12:22;4.33;;;2.10;;
10050;SDS011;5065;46.942;7.432;2024-03-22T02:14:50;2.47;;;1.63;;
10050;SDS011;5065;46.942;7.432;2024-03-22T02:17:17;5.80;;;2.00;;
10050;SDS011;5065;46.942;7.432;2024-03-22T02:19:43;2.17;;;1.83;;
10050;SDS011;5065;46.942;7.432;2024-03-22T02:22:11;1.67;;;1.37;;
10050;SDS011;5065;46.942;7.432;2024-03-22T02:24:39;5.07;;;1.93;;
10050;SDS011;5065;46.942;7.432;2024-03-22T02:27:06;2.10;;;1.90;;
10050;SDS011;5065;46.942;7.432;2024-03-22T02:29:32;2.47;;;1.60;;
10050;SDS011;5065;46.942;7.432;2024-03-22T02:31:59;2.00;;;1.57;;
10050;SDS011;5065;46.942;7.432;2024-03-22T02:34:26;2.40;;;1.73;;
10050;SDS011;5065;46.942;7.432;2024-03-22T02:36:53;1.73;;;1.50;;
10050;SDS011;5065;46.942;7.432;2024-03-22T02:39:19;2.00;;;1.80;;
10050;SDS011;5065;46.942;7.432;2024-03-22T02:41:47;1.60;;;1.50;;
10050;SDS011;5065;46.942;7.432;2024-03-22T02:44:14;3.35;;;2.60;;
10050;SDS011;5065;46.942;7.432;2024-03-22T02:46:41;3.53;;;2.00;;
10050;SDS011;5065;46.942;7.432;2024-03-22T02:49:07;3.00;;;2.37;;
10050;SDS011;5065;46.942;7.432;2024-03-22T02:51:34;2.13;;;1.90;;
10050;SDS011;5065;46.942;7.432;2024-03-22T02:54:00;1.93;;;1.70;;
10050;SDS011;5065;46.942;7.432;2024-03-22T02:56:28;2.53;;;1.70;;
10050;SDS011;5065;46.942;7.432;2024-03-22T02:58:55;4.33;;;1.60;;
10050;SDS011;5065;46.942;7.432;2024-03-22T03:01:22;1.63;;;1.53;;
10050;SDS011;5065;46.942;7.432;2024-03-22T03:03:49;2.50;;;2.30;;
10050;SDS011;5065;46.942;7.432;2024-03-22T03:06:16;2.07;;;1.87;;
10050;SDS011;5065;46.942;7.432;2024-03-22T03:08:45;3.10;;;1.90;;
10050;SDS011;5065;46.942;7.432;2024-03-22T03:11:12;1.70;;;1.57;;
10050;SDS011;5065;46.942;7.432;2024-03-22T03:13:39;2.43;;;2.00;;
10050;SDS011;5065;46.942;7.432;2024-03-22T03:16:08;2.03;;;1.83;;
10050;SDS011;5065;46.942;7.432;2024-03-22T03:18:34;3.23;;;1.57;;
10050;SDS011;5065;46.942;7.432;2024-03-22T03:21:01;3.83;;;2.17;;
10050;SDS011;5065;46.942;7.432;2024-03-22T03:23:27;2.20;;;1.80;;
10050;SDS011;5065;46.942;7.432;2024-03-22T03:25:55;1.60;;;1.47;;
10050;SDS011;5065;46.942;7.432;2024-03-22T03:28:21;1.90;;;1.50;;
10050;SDS011;5065;46.942;7.432;2024-03-22T03:30:51;4.00;;;1.97;;
10050;SDS011;5065;46.942;7.432;2024-03-22T03:33:18;4.23;;;2.10;;
10050;SDS011;5065;46.942;7.432;2024-03-22T03:35:45;3.20;;;1.97;;
10050;SDS011;5065;46.942;7.432;2024-03-22T03:38:12;1.70;;;1.40;;
10050;SDS011;5065;46.942;7.432;2024-03-22T03:40:39;1.53;;;1.30;;
10050;SDS011;5065;46.942;7.432;2024-03-22T03:43:05;3.30;;;1.60;;
10050;SDS011;5065;46.942;7.432;2024-03-22T03:45:35;3.87;;;1.80;;
10050;SDS011;5065;46.942;7.432;2024-03-22T03:48:02;2.33;;;1.60;;
10050;SDS011;5065;46.942;7.432;2024-03-22T03:50:31;1.63;;;1.53;;
10050;SDS011;5065;46.942;7.432;2024-03-22T03:52:57;1.60;;;1.50;;
10050;SDS011;5065;46.942;7.432;2024-03-22T03:55:24;2.60;;;1.97;;
10050;SDS011;5065;46.942;7.432;2024-03-22T03:57:51;2.23;;;1.60;;
10050;SDS011;5065;46.942;7.432;2024-03-22T04:00:19;2.10;;;1.67;;
10050;SDS011;5065;46.942;7.432;2024-03-22T04:02:45;1.83;;;1.23;;
10050;SDS011;5065;46.942;7.432;2024-03-22T04:05:14;1.67;;;1.57;;
10050;SDS011;5065;46.942;7.432;2024-03-22T04:07:42;1.60;;;1.50;;
10050;SDS011;5065;46.942;7.432;2024-03-22T04:10:13;1.93;;;1.70;;
10050;SDS011;5065;46.942;7.432;2024-03-22T04:12:39;2.87;;;1.80;;
10050;SDS011;5065;46.942;7.432;2024-03-22T04:15:06;3.70;;;1.60;;
10050;SDS011;5065;46.942;7.432;2024-03-22T04:17:33;1.53;;;1.40;;
10050;SDS011;5065;46.942;7.432;2024-03-22T04:20:00;1.50;;;1.40;;
10050;SDS011;5065;46.942;7.432;2024-03-22T04:22:27;2.10;;;1.90;;
10050;SDS011;5065;46.942;7.432;2024-03-22T04:24:56;2.20;;;1.80;;
10050;SDS011;5065;46.942;7.432;2024-03-22T04:27:22;1.87;;;1.50;;
10050;SDS011;5065;46.942;7.432;2024-03-22T04:29:49;2.17;;;1.90;;
10050;SDS011;5065;46.942;7.432;2024-03-22T04:32:15;1.93;;;1.77;;
10050;SDS011;5065;46.942;7.432;2024-03-22T04:34:42;2.40;;;2.00;;
10050;SDS011;5065;46.942;7.432;2024-03-22T04:37:08;1.53;;;1.43;;
10050;SDS011;5065;46.942;7.432;2024-03-22T04:39:36;3.07;;;1.60;;
10050;SDS011;5065;46.942;7.432;2024-03-22T04:42:05;1.70;;;1.60;;
10050;SDS011;5065;46.942;7.432;2024-03-22T04:44:33;2.33;;;1.80;;
10050;SDS011;5065;46.942;7.432;2024-03-22T04:47:00;5.30;;;2.17;;
10050;SDS011;5065;46.942;7.432;2024-03-22T04:49:26;1.80;;;1.50;;
10050;SDS011;5065;46.942;7.432;2024-03-22T04:51:53;2.17;;;1.80;;
10050;SDS011;5065;46.942;7.432;2024-03-22T04:54:19;2.03;;;1.83;;
10050;SDS011;5065;46.942;7.432;2024-03-22T04:56:46;4.27;;;2.23;;
10050;SDS011;5065;46.942;7.432;2024-03-22T04:59:15;3.40;;;1.60;;
10050;SDS011;5065;46.942;7.432;2024-03-22T05:01:41;1.87;;;1.70;;
10050;SDS011;5065;46.942;7.432;2024-03-22T05:04:09;1.53;;;1.43;;
10050;SDS011;5065;46.942;7.432;2024-03-22T05:06:35;1.93;;;1.70;;
10050;SDS011;5065;46.942;7.432;2024-03-22T05:09:02;1.57;;;1.30;;
10050;SDS011;5065;46.942;7.432;2024-03-22T05:11:28;1.53;;;1.40;;
10050;SDS011;5065;46.942;7.432;2024-03-22T05:13:57;2.87;;;1.83;;
10050;SDS011;5065;46.942;7.432;2024-03-22T05:16:24;1.87;;;1.77;;
10050;SDS011;5065;46.942;7.432;2024-03-22T05:18:51;3.77;;;1.67;;
10050;SDS011;5065;46.942;7.432;2024-03-22T05:21:18;1.87;;;1.57;;
10050;SDS011;5065;46.942;7.432;2024-03-22T05:23:45;2.00;;;1.33;;
10050;SDS011;5065;46.942;7.432;2024-03-22T05:26:11;1.97;;;1.77;;
10050;SDS011;5065;46.942;7.432;2024-03-22T05:28:38;2.13;;;1.70;;
10050;SDS011;5065;46.942;7.432;2024-03-22T05:31:05;2.30;;;1.77;;
10050;SDS011;5065;46.942;7.432;2024-03-22T05:33:33;3.87;;;1.47;;
10050;SDS011;5065;46.942;7.432;2024-03-22T05:35:59;4.23;;;1.97;;
10050;SDS011;5065;46.942;7.432;2024-03-22T05:38:26;2.37;;;1.40;;
10050;SDS011;5065;46.942;7.432;2024-03-22T05:40:52;2.90;;;2.20;;
10050;SDS011;5065;46.942;7.432;2024-03-22T05:43:19;2.30;;;1.73;;
10050;SDS011;5065;46.942;7.432;2024-03-22T05:45:45;1.63;;;1.53;;
10050;SDS011;5065;46.942;7.432;2024-03-22T05:48:13;1.97;;;1.50;;
10050;SDS011;5065;46.942;7.432;2024-03-22T05:50:41;2.00;;;1.70;;
10050;SDS011;5065;46.942;7.432;2024-03-22T05:53:08;2.67;;;2.33;;
10050;SDS011;5065;46.942;7.432;2024-03-22T05:55:34;2.20;;;2.00;;
10050;SDS011;5065;46.942;7.432;2024-03-22T05:58:01;3.37;;;2.63;;
10050;SDS011;5065;46.942;7.432;2024-03-22T06:00:28;2.33;;;2.00;;
10050;SDS011;5065;46.942;7.432;2024-03-22T06:02:55;2.60;;;1.90;;
10050;SDS011;5065;46.942;7.432;2024-03-22T06:05:22;2.83;;;2.07;;
10050;SDS011;5065;46.942;7.432;2024-03-22T06:07:50;2.60;;;2.30;;
10050;SDS011;5065;46.942;7.432;2024-03-22T06:10:16;2.43;;;2.23;;
10050;SDS011;5065;46.942;7.432;2024-03-22T06:12:43;2.13;;;1.93;;
10050;SDS011;5065;46.942;7.432;2024-03-22T06:15:12;2.00;;;1.80;;
10050;SDS011;5065;46.942;7.432;2024-03-22T06:17:40;3.50;;;2.13;;
10050;SDS011;5065;46.942;7.432;2024-03-22T06:20:08;2.77;;;2.17;;
10050;SDS011;5065;46.942;7.432;2024-03-22T06:22:36;2.20;;;2.00;;
10050;SDS011;5065;46.942;7.432;2024-03-22T06:25:05;3.10;;;2.10;;
10050;SDS011;5065;46.942;7.432;2024-03-22T06:27:32;3.83;;;2.20;;
10050;SDS011;5065;46.942;7.432;2024-03-22T06:29:58;4.63;;;2.20;;
10050;SDS011;5065;46.942;7.432;2024-03-22T06:32:25;4.73;;;2.70;;
10050;SDS011;5065;46.942;7.432;2024-03-22T06:34:51;2.40;;;2.20;;
10050;SDS011;5065;46.942;7.432;2024-03-22T06:37:19;2.70;;;2.23;;
10050;SDS011;5065;46.942;7.432;2024-03-22T06:39:45;3.17;;;1.90;;
10050;SDS011;5065;46.942;7.432;2024-03-22T06:42:13;2.67;;;2.30;;
10050;SDS011;5065;46.942;7.432;2024-03-22T06:44:39;3.30;;;2.67;;
10050;SDS011;5065;46.942;7.432;2024-03-22T06:47:06;2.70;;;2.40;;
10050;SDS011;5065;46.942;7.432;2024-03-22T06:49:32;2.90;;;2.27;;
10050;SDS011;5065;46.942;7.432;2024-03-22T06:52:00;5.97;;;3.70;;
10050;SDS011;5065;46.942;7.432;2024-03-22T06:54:26;4.47;;;3.00;;
10050;SDS011;5065;46.942;7.432;2024-03-22T06:56:53;1.50;;;1.40;;
10050;SDS011;5065;46.942;7.432;2024-03-22T06:59:20;1.80;;;1.60;;
10050;SDS011;5065;46.942;7.432;2024-03-22T07:01:47;3.00;;;1.90;;
10050;SDS011;5065;46.942;7.432;2024-03-22T07:04:14;3.73;;;1.77;;
10050;SDS011;5065;46.942;7.432;2024-03-22T07:06:41;6.97;;;1.80;;
10050;SDS011;5065;46.942;7.432;2024-03-22T07:09:07;2.83;;;1.90;;
10050;SDS011;5065;46.942;7.432;2024-03-22T07:11:35;2.93;;;2.00;;
10050;SDS011;5065;46.942;7.432;2024-03-22T07:14:01;2.40;;;2.20;;
10050;SDS011;5065;46.942;7.432;2024-03-22T07:16:31;2.70;;;2.27;;
10050;SDS011;5065;46.942;7.432;2024-03-22T07:18:57;5.10;;;1.83;;
10050;SDS011;5065;46.942;7.432;2024-03-22T07:21:24;3.33;;;2.20;;
10050;SDS011;5065;46.942;7.432;2024-03-22T07:23:51;2.57;;;2.00;;
10050;SDS011;5065;46.942;7.432;2024-03-22T07:26:19;1.80;;;1.40;;
10050;SDS011;5065;46.942;7.432;2024-03-22T07:28:45;7.17;;;2.07;;
10050;SDS011;5065;46.942;7.432;2024-03-22T07:31:12;2.40;;;1.70;;
10050;SDS011;5065;46.942;7.432;2024-03-22T07:33:40;5.53;;;3.13;;
10050;SDS011;5065;46.942;7.432;2024-03-22T07:36:07;2.33;;;2.03;;
10050;SDS011;5065;46.942;7.432;2024-03-22T07:38:33;1.70;;;1.60;;
10050;SDS011;5065;46.942;7.432;2024-03-22T07:41:00;2.50;;;1.73;;
10050;SDS011;5065;46.942;7.432;2024-03-22T07:43:26;4.03;;;1.50;;
10050;SDS011;5065;46.942;7.432;2024-03-22T07:45:53;1.70;;;1.60;;
10050;SDS011;5065;46.942;7.432;2024-03-22T07:48:20;3.53;;;1.60;;
10050;SDS011;5065;46.942;7.432;2024-03-22T07:50:55;3.27;;;1.50;;
10050;SDS011;5065;46.942;7.432;2024-03-22T07:53:21;1.53;;;1.30;;
10050;SDS011;5065;46.942;7.432;2024-03-22T07:55:48;3.73;;;1.57;;
10050;SDS011;5065;46.942;7.432;2024-03-22T07:58:14;1.70;;;1.30;;
10050;SDS011;5065;46.942;7.432;2024-03-22T08:00:42;1.87;;;1.67;;
10050;SDS011;5065;46.942;7.432;2024-03-22T08:03:08;2.43;;;1.73;;
10050;SDS011;5065;46.942;7.432;2024-03-22T08:05:41;3.80;;;2.10;;
10050;SDS011;5065;46.942;7.432;2024-03-22T08:08:09;5.27;;;1.30;;
10050;SDS011;5065;46.942;7.432;2024-03-22T08:10:36;3.13;;;1.83;;
10050;SDS011;5065;46.942;7.432;2024-03-22T08:13:02;2.30;;;1.50;;
10050;SDS011;5065;46.942;7.432;2024-03-22T08:15:30;5.60;;;1.77;;
10050;SDS011;5065;46.942;7.432;2024-03-22T08:17:56;2.27;;;1.40;;
10050;SDS011;5065;46.942;7.432;2024-03-22T08:20:23;2.70;;;1.40;;
10050;SDS011;5065;46.942;7.432;2024-03-22T08:22:50;2.65;;;1.50;;
10050;SDS011;5065;46.942;7.432;2024-03-22T08:25:18;1.67;;;1.57;;
10050;SDS011;5065;46.942;7.432;2024-03-22T08:27:45;4.27;;;1.60;;
10050;SDS011;5065;46.942;7.432;2024-03-22T08:30:12;3.87;;;1.93;;
10050;SDS011;5065;46.942;7.432;2024-03-22T08:32:40;2.00;;;1.80;;
10050;SDS011;5065;46.942;7.432;2024-03-22T08:35:06;7.73;;;1.90;;
10050;SDS011;5065;46.942;7.432;2024-03-22T08:37:33;1.63;;;1.52;;
10050;SDS011;5065;46.942;7.432;2024-03-22T08:39:59;1.60;;;1.50;;
10050;SDS011;5065;46.942;7.432;2024-03-22T08:42:30;3.03;;;2.00;;
10050;SDS011;5065;46.942;7.432;2024-03-22T08:44:57;2.30;;;1.80;;
10050;SDS011;5065;46.942;7.432;2024-03-22T08:47:24;2.63;;;1.80;;
10050;SDS011;5065;46.942;7.432;2024-03-22T08:49:51;2.63;;;1.52;;
10050;SDS011;5065;46.942;7.432;2024-03-22T08:52:18;1.92;;;1.67;;
10050;SDS011;5065;46.942;7.432;2024-03-22T08:54:44;1.50;;;1.40;;
10050;SDS011;5065;46.942;7.432;2024-03-22T08:57:11;1.67;;;1.30;;
10050;SDS011;5065;46.942;7.432;2024-03-22T08:59:38;3.88;;;1.67;;
10050;SDS011;5065;46.942;7.432;2024-03-22T09:02:06;2.13;;;1.70;;
10050;SDS011;5065;46.942;7.432;2024-03-22T09:04:32;2.22;;;1.75;;
10050;SDS011;5065;46.942;7.432;2024-03-22T09:06:59;2.35;;;1.85;;
10050;SDS011;5065;46.942;7.432;2024-03-22T09:09:25;4.47;;;1.83;;
10050;SDS011;5065;46.942;7.432;2024-03-22T09:11:52;2.22;;;1.83;;
10050;SDS011;5065;46.942;7.432;2024-03-22T09:14:20;3.67;;;1.65;;
10050;SDS011;5065;46.942;7.432;2024-03-22T09:16:48;1.30;;;1.05;;
10050;SDS011;5065;46.942;7.432;2024-03-22T09:19:14;2.28;;;1.67;;
10050;SDS011;5065;46.942;7.432;2024-03-22T09:21:42;2.15;;;1.60;;
10050;SDS011;5065;46.942;7.432;2024-03-22T09:24:08;2.25;;;1.45;;
10050;SDS011;5065;46.942;7.432;2024-03-22T09:26:35;1.90;;;1.33;;
10050;SDS011;5065;46.942;7.432;2024-03-22T09:29:02;1.48;;;1.20;;
10050;SDS011;5065;46.942;7.432;2024-03-22T09:31:29;2.17;;;1.27;;
10050;SDS011;5065;46.942;7.432;2024-03-22T09:33:57;3.50;;;1.48;;
10050;SDS011;5065;46.942;7.432;2024-03-22T09:36:26;2.67;;;1.63;;
10050;SDS011;5065;46.942;7.432;2024-03-22T09:38:52;1.65;;;1.17;;
10050;SDS011;5065;46.942;7.432;2024-03-22T09:41:21;1.55;;;1.45;;
10050;SDS011;5065;46.942;7.432;2024-03-22T09:43:50;1.95;;;1.50;;
10050;SDS011;5065;46.942;7.432;2024-03-22T09:46:19;1.58;;;1.48;;
10050;SDS011;5065;46.942;7.432;2024-03-22T09:48:46;2.35;;;1.25;;
10050;SDS011;5065;46.942;7.432;2024-03-22T09:51:15;1.95;;;1.70;;
10050;SDS011;5065;46.942;7.432;2024-03-22T09:53:42;1.48;;;1.38;;
10050;SDS011;5065;46.942;7.432;2024-03-22T09:56:12;3.42;;;1.67;;
10050;SDS011;5065;46.942;7.432;2024-03-22T09:58:40;1.27;;;1.17;;
10050;SDS011;5065;46.942;7.432;2024-03-22T10:01:07;2.03;;;1.63;;
10050;SDS011;5065;46.942;7.432;2024-03-22T10:03:33;1.52;;;1.42;;
10050;SDS011;5065;46.942;7.432;2024-03-22T10:06:02;1.45;;;1.30;;
10050;SDS011;5065;46.942;7.432;2024-03-22T10:37:49;2.47;;;1.20;;
10050;SDS011;5065;46.942;7.432;2024-03-22T10:40:17;1.65;;;1.42;;
10050;SDS011;5065;46.942;7.432;2024-03-22T10:42:45;1.77;;;0.95;;
10050;SDS011;5065;46.942;7.432;2024-03-22T10:45:12;1.58;;;1.38;;
10050;SDS011;5065;46.942;7.432;2024-03-22T10:47:39;3.75;;;0.95;;
10050;SDS011;5065;46.942;7.432;2024-03-22T10:50:07;3.63;;;1.30;;
10050;SDS011;5065;46.942;7.432;2024-03-22T10:52:34;1.63;;;0.90;;
10050;SDS011;5065;46.942;7.432;2024-03-22T10:55:04;1.05;;;0.90;;
10050;SDS011;5065;46.942;7.432;2024-03-22T10:57:33;2.17;;;1.90;;
10050;SDS011;5065;46.942;7.432;2024-03-22T11:00:07;1.63;;;1.30;;
10050;SDS011;5065;46.942;7.432;2024-03-22T11:02:35;2.53;;;1.30;;
10050;SDS011;5065;46.942;7.432;2024-03-22T11:05:02;3.05;;;1.42;;
10050;SDS011;5065;46.942;7.432;2024-03-22T11:07:29;1.55;;;1.27;;
10050;SDS011;5065;46.942;7.432;2024-03-22T11:09:56;2.28;;;1.40;;
10050;SDS011;5065;46.942;7.432;2024-03-22T11:12:24;1.70;;;1.43;;
10050;SDS011;5065;46.942;7.432;2024-03-22T11:14:52;2.58;;;0.80;;
10050;SDS011;5065;46.942;7.432;2024-03-22T11:17:20;2.10;;;1.58;;
10050;SDS011;5065;46.942;7.432;2024-03-22T11:19:50;2.33;;;1.48;;
10050;SDS011;5065;46.942;7.432;2024-03-22T11:22:16;1.65;;;1.05;;
10050;SDS011;5065;46.942;7.432;2024-03-22T11:24:44;1.52;;;1.30;;
10050;SDS011;5065;46.942;7.432;2024-03-22T11:27:10;1.75;;;1.23;;
10050;SDS011;5065;46.942;7.432;2024-03-22T11:29:39;4.47;;;1.50;;
10050;SDS011;5065;46.942;7.432;2024-03-22T11:32:06;0.85;;;0.85;;
10050;SDS011;5065;46.942;7.432;2024-03-22T11:34:36;1.30;;;1.17;;
10050;SDS011;5065;46.942;7.432;2024-03-22T11:37:03;2.25;;;1.20;;
10050;SDS011;5065;46.942;7.432;2024-03-22T11:39:32;1.40;;;1.30;;
10050;SDS011;5065;46.942;7.432;2024-03-22T11:42:00;2.95;;;1.25;;
10050;SDS011;5065;46.942;7.432;2024-03-22T11:44:27;2.28;;;1.92;;
10050;SDS011;5065;46.942;7.432;2024-03-22T11:46:54;1.58;;;1.38;;
10050;SDS011;5065;46.942;7.432;2024-03-22T11:49:21;2.03;;;1.40;;
10050;SDS011;5065;46.942;7.432;2024-03-22T11:51:51;3.53;;;1.30;;
10050;SDS011;5065;46.942;7.432;2024-03-22T11:54:19;2.20;;;1.40;;
10050;SDS011;5065;46.942;7.432;2024-03-22T11:56:45;1.55;;;1.40;;
10050;SDS011;5065;46.942;7.432;2024-03-22T11:59:12;1.50;;;1.40;;
10050;SDS011;5065;46.942;7.432;2024-03-22T12:01:39;1.73;;;1.40;;
10050;SDS011;5065;46.942;7.432;2024-03-22T12:04:09;1.55;;;1.30;;
10050;SDS011;5065;46.942;7.432;2024-03-22T12:06:40;2.70;;;1.00;;
10050;SDS011;5065;46.942;7.432;2024-03-22T12:09:09;1.10;;;1.00;;
10050;SDS011;5065;46.942;7.432;2024-03-22T12:11:37;0.85;;;0.82;;
10050;SDS011;5065;46.942;7.432;2024-03-22T12:14:04;1.40;;;0.80;;
10050;SDS011;5065;46.942;7.432;2024-03-22T12:16:31;1.23;;;0.90;;
10050;SDS011;5065;46.942;7.432;2024-03-22T12:18:58;2.25;;;1.13;;
10050;SDS011;5065;46.942;7.432;2024-03-22T12:21:26;0.60;;;0.60;;
10050;SDS011;5065;46.942;7.432;2024-03-22T12:23:53;6.80;;;0.90;;
10050;SDS011;5065;46.942;7.432;2024-03-22T12:26:21;0.70;;;0.70;;
10050;SDS011;5065;46.942;7.432;2024-03-22T12:28:48;0.98;;;0.60;;
10050;SDS011;5065;46.942;7.432;2024-03-22T12:31:16;2.03;;;1.23;;
10050;SDS011;5065;46.942;7.432;2024-03-22T12:33:44;1.27;;;0.80;;
10050;SDS011;5065;46.942;7.432;2024-03-22T12:36:11;1.00;;;0.90;;
10050;SDS011;5065;46.942;7.432;2024-03-22T12:38:38;1.20;;;0.80;;
10050;SDS011;5065;46.942;7.432;2024-03-22T12:41:04;0.93;;;0.70;;
10050;SDS011;5065;46.942;7.432;2024-03-22T12:43:33;1.13;;;0.90;;
10050;SDS011;5065;46.942;7.432;2024-03-22T12:45:59;0.85;;;0.60;;
10050;SDS011;5065;46.942;7.432;2024-03-22T12:48:26;1.67;;;0.77;;
10050;SDS011;5065;46.942;7.432;2024-03-22T12:50:53;1.45;;;0.80;;
10050;SDS011;5065;46.942;7.432;2024-03-22T12:53:20;0.73;;;0.73;;
10050;SDS011;5065;46.942;7.432;2024-03-22T12:55:47;1.00;;;0.70;;
10050;SDS011;5065;46.942;7.432;2024-03-22T12:58:14;0.43;;;0.43;;
10050;SDS011;5065;46.942;7.432;2024-03-22T13:00:44;1.10;;;0.60;;
10050;SDS011;5065;46.942;7.432;2024-03-22T13:03:11;3.63;;;0.70;;
10050;SDS011;5065;46.942;7.432;2024-03-22T13:05:38;1.42;;;0.75;;
10050;SDS011;5065;46.942;7.432;2024-03-22T13:08:05;0.80;;;0.80;;
10050;SDS011;5065;46.942;7.432;2024-03-22T13:10:32;0.77;;;0.60;;
10050;SDS011;5065;46.942;7.432;2024-03-22T13:12:59;0.75;;;0.75;;
10050;SDS011;5065;46.942;7.432;2024-03-22T13:15:26;1.95;;;0.90;;
10050;SDS011;5065;46.942;7.432;2024-03-22T13:17:54;0.88;;;0.60;;
10050;SDS011;5065;46.942;7.432;2024-03-22T13:20:21;0.52;;;0.50;;
10050;SDS011;5065;46.942;7.432;2024-03-22T13:22:51;0.68;;;0.50;;
10050;SDS011;5065;46.942;7.432;2024-03-22T13:25:17;0.73;;;0.60;;
10050;SDS011;5065;46.942;7.432;2024-03-22T13:27:44;2.08;;;0.80;;
10050;SDS011;5065;46.942;7.432;2024-03-22T13:30:11;0.50;;;0.50;;
10050;SDS011;5065;46.942;7.432;2024-03-22T13:32:39;0.85;;;0.70;;
10050;SDS011;5065;46.942;7.432;2024-03-22T13:35:07;1.08;;;0.77;;
10050;SDS011;5065;46.942;7.432;2024-03-22T13:37:35;1.17;;;0.60;;
10050;SDS011;5065;46.942;7.432;2024-03-22T13:40:01;0.60;;;0.60;;
10050;SDS011;5065;46.942;7.432;2024-03-22T13:42:29;0.75;;;0.75;;
10050;SDS011;5065;46.942;7.432;2024-03-22T13:44:55;3.95;;;1.25;;
10050;SDS011;5065;46.942;7.432;2024-03-22T13:47:23;2.70;;;0.70;;
10050;SDS011;5065;46.942;7.432;2024-03-22T13:49:50;2.08;;;0.93;;
10050;SDS011;5065;46.942;7.432;2024-03-22T13:52:18;1.95;;;1.25;;
10050;SDS011;5065;46.942;7.432;2024-03-22T13:54:45;0.82;;;0.70;;
10050;SDS011;5065;46.942;7.432;2024-03-22T13:57:13;1.27;;;0.70;;
10050;SDS011;5065;46.942;7.432;2024-03-22T13:59:39;2.58;;;0.85;;
10050;SDS011;5065;46.942;7.432;2024-03-22T14:02:06;1.30;;;1.02;;
10050;SDS011;5065;46.942;7.432;2024-03-22T14:04:33;0.60;;;0.60;;
10050;SDS011;5065;46.942;7.432;2024-03-22T14:07:00;4.10;;;2.47;;
10050;SDS011;5065;46.942;7.432;2024-03-22T14:09:31;1.40;;;1.10;;
10050;SDS011;5065;46.942;7.432;2024-03-22T14:11:58;1.50;;;1.05;;
10050;SDS011;5065;46.942;7.432;2024-03-22T14:14:25;0.60;;;0.60;;
10050;SDS011;5065;46.942;7.432;2024-03-22T14:16:52;0.75;;;0.60;;
10050;SDS011;5065;46.942;7.432;2024-03-22T14:19:18;0.95;;;0.60;;
10050;SDS011;5065;46.942;7.432;2024-03-22T14:21:45;1.10;;;0.77;;
10050;SDS011;5065;46.942;7.432;2024-03-22T14:24:12;1.10;;;0.85;;
10050;SDS011;5065;46.942;7.432;2024-03-22T14:26:41;2.20;;;1.05;;
10050;SDS011;5065;46.942;7.432;2024-03-22T14:29:07;0.70;;;0.70;;
10050;SDS011;5065;46.942;7.432;2024-03-22T14:31:35;1.30;;;0.80;;
10050;SDS011;5065;46.942;7.432;2024-03-22T14:34:01;1.20;;;0.90;;
10050;SDS011;5065;46.942;7.432;2024-03-22T14:36:28;1.20;;;0.90;;
10050;SDS011;5065;46.942;7.432;2024-03-22T14:38:55;0.60;;;0.60;;
10050;SDS011;5065;46.942;7.432;2024-03-22T14:41:22;0.77;;;0.50;;
10050;SDS011;5065;46.942;7.432;2024-03-22T14:43:49;1.08;;;0.70;;
10050;SDS011;5065;46.942;7.432;2024-03-22T14:46:17;2.08;;;0.68;;
10050;SDS011;5065;46.942;7.432;2024-03-22T14:48:48;0.68;;;0.68;;
10050;SDS011;5065;46.942;7.432;2024-03-22T14:51:15;0.80;;;0.80;;
10050;SDS011;5065;46.942;7.432;2024-03-22T14:53:41;0.98;;;0.80;;
10050;SDS011;5065;46.942;7.432;2024-03-22T14:56:10;2.63;;;0.60;;
10050;SDS011;5065;46.942;7.432;2024-03-22T14:58:38;2.42;;;1.17;;
10050;SDS011;5065;46.942;7.432;2024-03-22T15:01:09;0.85;;;0.68;;
10050;SDS011;5065;46.942;7.432;2024-03-22T15:03:36;0.80;;;0.75;;
10050;SDS011;5065;46.942;7.432;2024-03-22T15:06:03;1.27;;;0.77;;
10050;SDS011;5065;46.942;7.432;2024-03-22T15:08:30;0.73;;;0.63;;
10050;SDS011;5065;46.942;7.432;2024-03-22T15:11:00;1.02;;;0.60;;
10050;SDS011;5065;46.942;7.432;2024-03-22T15:13:26;0.70;;;0.68;;
10050;SDS011;5065;46.942;7.432;2024-03-22T15:15:54;1.67;;;0.70;;
10050;SDS011;5065;46.942;7.432;2024-03-22T15:18:24;1.25;;;0.80;;
10050;SDS011;5065;46.942;7.432;2024-03-22T15:20:55;0.73;;;0.70;;
10050;SDS011;5065;46.942;7.432;2024-03-22T15:23:21;1.75;;;0.88;;
10050;SDS011;5065;46.942;7.432;2024-03-22T15:25:48;1.33;;;1.00;;
10050;SDS011;5065;46.942;7.432;2024-03-22T15:28:15;1.15;;;1.00;;
10050;SDS011;5065;46.942;7.432;2024-03-22T15:30:42;1.67;;;0.75;;